SBSPSBKP

Guest
Details From SBSP - Sao Paulo Congonhas
To SBKP - Sao Paulo Viracopos
Flight Number -
Tags generated
Created
Modified
Stats Distance 46 nm / 85 km
Max Altitude 0 ft / 0 m
Waypoints 3
Social Downloads 3
Likes 0
Share VATSIM

Download

Looking for another format? Having issues loading an existing format? Contact us
Advertisement - Login to hide

Notes

Basic altitude profile: - Ascent Rate: 2500ft/min - Ascent Speed: 250kts - Cruise Altitude: 35000ft - Cruise Speed: 420kts - Descent Rate: 1500ft/min - Descent Speed: 250kts Options: - Use NATs: no - Use PACOTS: no - Use low airways: no - Use high airways: yes

Route

SBSP CPN SBKP

ID Type Via Altitude Latitude Longitude Leg Dist Tot Dist Heading (true) Name
O SBSP APT - 0 ft / 0 m -23.62669˚ -46.65538˚ - 0 nm - Sao Paulo Congonhas
CPN VOR - 0 ft / 0 m -23.00871˚ -47.12904˚ 45 nm 45 nm 325° / 325° CAMPINAS VOR-DME
O SBKP APT - 0 ft / 0 m -23.00738˚ -47.13452˚ 0 nm 45 nm 285° / 285° Sao Paulo Viracopos

Altitude Profile

Advertisement - Login to hide

SBSP

Details ICAO SBSP (CGH)
Name Sao Paulo Congonhas
Region Brazil
Timezone America/Sao_Paulo (UTC-3.0)
Stats Elevation 2,631 ft / 802 m (AMSL)
Location -23.626693° -46.655377°
Runways 2
Magnetic Variation 21.350° W

METAR

Not found

TAF

TAF TAF SBSP 272200Z 2800/2824 11003KT 7000 SCT015TN13/2809Z TX24/2818Z BECMG 2804/2806 BKN012 PROB30 2806/2811 07003KT 5000 BR BKN008 BECMG 2811/2813 05008KT 9999 BKN013 BECMG 2813/2815 FEW025 BECMG 2816/2818 15008KT SCT012 BECMG 2820/2822 BKN012 RMK PHM

Decode

Departure Runways

ID Width Length Bearing (true) Bearing (mag) Surface Threshold Offset Overrun Length
17L 147 ft / 45 m 4,726 ft / 1,441 m 147.28° 168.63° Asphalt 0 ft / 0 m 220 ft / 67 m
17R 147 ft / 45 m 6,406 ft / 1,953 m 147.39° 168.74° Asphalt 413 ft / 126 m 0 ft / 0 m
35L 147 ft / 45 m 6,406 ft / 1,953 m 327.38° 348.73° Asphalt 200 ft / 61 m 0 ft / 0 m
35R 147 ft / 45 m 4,726 ft / 1,441 m 327.28° 348.63° Asphalt 0 ft / 0 m 0 ft / 0 m

SBKP

Details ICAO SBKP (VCP)
Name Sao Paulo Viracopos
Region Brazil
Timezone America/Sao_Paulo (UTC-3.0)
Stats Elevation 2,170 ft / 661 m (AMSL)
Location -23.007383° -47.134522°
Runways 1
Magnetic Variation 21.250° W

METAR

Not found

TAF

TAF SBKP 272200Z 2800/2824 13008KT CAVOK TN13/2808Z TX26/2817Z PROB40 2809/2812 5000 BR NSC BECMG 2812/2814 05005KT PROB30 2815/2818 18005KT 9999 SCT040 BECMG 2820/2822 15010KT 8000 RMK PHM

Decode

Destination Runways

ID Width Length Bearing (true) Bearing (mag) Surface Threshold Offset Overrun Length
15 148 ft / 45 m 10,639 ft / 3,243 m 127.91° 149.16° Asphalt 0 ft / 0 m 205 ft / 62 m
33 148 ft / 45 m 10,639 ft / 3,243 m 307.90° 329.15° Asphalt 0 ft / 0 m 205 ft / 62 m

Approach Navaids

Runway Type Ident Frequency Range Bearing (true) Bearing (mag) Slope Elevation
15 Localiser IKP 110.30 MHz 18 nm / 33 km 127.95° 149.20° - 2,170 ft / 661 m (AMSL)
15 Glidescope IKP 110.30 MHz 10 nm / 19 km 127.90° 149.15° 3.00° 2,170 ft / 661 m (AMSL)

Popular Alternatives